createdAt,value
2018-04-10T00:01:37.121Z,16.47
2018-04-10T00:04:03.271Z,16.90
2018-04-10T00:06:29.385Z,17.10
2018-04-10T00:08:55.454Z,16.67
2018-04-10T00:11:21.482Z,18.00
2018-04-10T00:13:48.313Z,15.90
2018-04-10T00:16:15.170Z,16.50
2018-04-10T00:18:41.888Z,16.90
2018-04-10T00:21:07.905Z,16.30
2018-04-10T00:23:33.943Z,17.00
2018-04-10T00:26:00.063Z,16.90
2018-04-10T00:28:26.108Z,16.50
2018-04-10T00:30:52.144Z,16.63
2018-04-10T00:33:18.197Z,16.70
2018-04-10T00:35:44.992Z,16.57
2018-04-10T00:38:11.829Z,17.30
2018-04-10T00:40:37.943Z,16.50
2018-04-10T00:43:03.957Z,17.97
2018-04-10T00:45:29.982Z,17.03
2018-04-10T00:47:55.976Z,17.60
2018-04-10T00:50:22.634Z,17.10
2018-04-10T00:52:48.584Z,17.00
2018-04-10T00:55:16.346Z,18.20
2018-04-10T00:57:43.089Z,16.33
2018-04-10T01:00:09.804Z,18.17
2018-04-10T01:02:35.831Z,17.47
2018-04-10T01:05:01.909Z,17.10
2018-04-10T01:07:28.657Z,17.10
2018-04-10T01:09:54.717Z,16.73
2018-04-10T01:12:21.505Z,16.27
2018-04-10T01:14:47.686Z,17.33
2018-04-10T01:17:14.545Z,16.33
2018-04-10T01:19:40.628Z,17.20
2018-04-10T01:22:06.726Z,15.83
2018-04-10T01:24:32.808Z,15.90
2018-04-10T01:26:58.838Z,15.53
2018-04-10T01:29:24.873Z,16.63
2018-04-10T01:31:50.984Z,16.50
2018-04-10T01:34:17.730Z,15.37
2018-04-10T01:36:44.560Z,16.37
2018-04-10T01:39:10.601Z,18.17
2018-04-10T01:41:37.360Z,16.13
2018-04-10T01:44:04.120Z,17.20
2018-04-10T01:46:30.735Z,16.03
2018-04-10T01:48:57.488Z,17.20
2018-04-10T01:51:25.209Z,18.00
2018-04-10T01:53:51.332Z,15.27
2018-04-10T01:56:17.382Z,16.47
2018-04-10T01:58:43.408Z,16.73
2018-04-10T02:01:10.306Z,15.20
2018-04-10T02:03:36.372Z,16.40
2018-04-10T02:06:02.413Z,17.50
2018-04-10T02:08:28.488Z,16.57
2018-04-10T02:10:54.522Z,16.03
2018-04-10T02:13:20.693Z,16.50
2018-04-10T02:15:46.750Z,16.50
2018-04-10T02:18:13.532Z,16.43
2018-04-10T02:20:39.531Z,16.83
2018-04-10T02:23:06.168Z,14.93
2018-04-10T02:25:32.245Z,15.50
2018-04-10T02:27:58.264Z,16.80
2018-04-10T02:30:25.027Z,15.13
2018-04-10T02:32:51.082Z,15.80
2018-04-10T02:35:17.100Z,15.50
2018-04-10T02:37:43.092Z,16.27
2018-04-10T02:40:09.136Z,16.63
2018-04-10T02:42:35.138Z,15.53
2018-04-10T02:45:01.201Z,16.97
2018-04-10T02:47:27.206Z,14.50
2018-04-10T02:49:54.032Z,15.50
2018-04-10T02:52:20.068Z,16.00
2018-04-10T02:54:46.888Z,15.63
2018-04-10T02:57:13.673Z,15.70
2018-04-10T02:59:40.428Z,15.63
2018-04-10T03:02:07.184Z,15.80
2018-04-10T03:04:33.264Z,16.30
2018-04-10T03:06:59.282Z,16.13
2018-04-10T03:09:25.285Z,16.33
2018-04-10T03:11:51.324Z,15.90
2018-04-10T03:14:17.347Z,16.30
2018-04-10T03:16:43.469Z,17.10
2018-04-10T03:19:09.500Z,17.33
2018-04-10T03:21:35.518Z,15.80
2018-04-10T03:24:02.236Z,14.80
2018-04-10T03:26:28.381Z,17.37
2018-04-10T03:28:55.172Z,16.90
2018-04-10T03:31:21.177Z,16.83
2018-04-10T03:33:47.984Z,16.50
2018-04-10T03:36:14.041Z,16.60
2018-04-10T03:38:41.807Z,16.17
2018-04-10T03:41:08.665Z,16.30
2018-04-10T03:43:35.489Z,15.40
2018-04-10T03:46:01.504Z,15.77
2018-04-10T03:48:27.597Z,16.10
2018-04-10T03:50:53.661Z,15.33
2018-04-10T03:53:19.802Z,17.37
2018-04-10T03:55:46.104Z,15.70
2018-04-10T03:58:12.872Z,16.57
2018-04-10T04:00:38.899Z,16.47
2018-04-10T04:03:04.990Z,15.03
2018-04-10T04:05:31.025Z,15.93
2018-04-10T04:07:57.164Z,15.67
2018-04-10T04:10:23.238Z,15.70
2018-04-10T04:12:49.286Z,17.00
2018-04-10T04:15:16.004Z,14.60
2018-04-10T04:17:42.026Z,15.93
2018-04-10T04:20:20.264Z,16.13
2018-04-10T04:22:46.312Z,16.13
2018-04-10T04:25:12.326Z,16.63
2018-04-10T04:27:40.052Z,17.40
2018-04-10T04:30:06.099Z,17.70
2018-04-10T04:32:32.115Z,20.23
2018-04-10T04:34:58.151Z,18.50
2018-04-10T04:37:24.162Z,16.40
2018-04-10T04:39:51.260Z,17.93
2018-04-10T04:42:17.317Z,16.70
2018-04-10T04:44:43.357Z,17.90
2018-04-10T04:47:10.154Z,17.27
2018-04-10T04:49:36.176Z,18.97
2018-04-10T04:52:02.204Z,18.13
2018-04-10T04:54:28.312Z,17.87
2018-04-10T04:56:54.373Z,18.10
2018-04-10T04:59:20.394Z,19.33
2018-04-10T05:01:46.349Z,19.23
2018-04-10T05:04:12.417Z,18.63
2018-04-10T05:06:38.419Z,23.10
2018-04-10T05:09:05.281Z,19.90
2018-04-10T05:11:31.307Z,19.27
2018-04-10T05:13:57.342Z,20.00
2018-04-10T05:16:24.141Z,36.90
2018-04-10T05:18:50.211Z,27.70
2018-04-10T05:21:16.920Z,20.80
2018-04-10T05:23:42.948Z,19.87
2018-04-10T05:26:09.065Z,19.43
2018-04-10T05:28:37.183Z,20.50
2018-04-10T05:31:03.300Z,21.97
2018-04-10T05:33:31.054Z,21.53
2018-04-10T05:35:57.160Z,21.67
2018-04-10T05:38:23.204Z,20.27
2018-04-10T05:40:49.305Z,21.53
2018-04-10T05:43:15.387Z,21.83
2018-04-10T05:45:41.429Z,22.53
2018-04-10T05:48:08.277Z,22.70
2018-04-10T05:50:35.088Z,20.67
2018-04-10T05:53:01.902Z,22.80
2018-04-10T05:55:28.050Z,20.97
2018-04-10T05:57:54.121Z,20.53
2018-04-10T06:00:21.088Z,21.93
2018-04-10T06:02:47.263Z,22.00
2018-04-10T06:05:13.332Z,23.60
2018-04-10T06:07:39.412Z,21.30
2018-04-10T06:10:05.567Z,22.03
2018-04-10T06:12:31.667Z,22.03
2018-04-10T06:14:57.794Z,24.10
2018-04-10T06:17:23.912Z,21.10
2018-04-10T06:19:50.049Z,22.83
2018-04-10T06:22:16.949Z,22.23
2018-04-10T06:24:43.001Z,22.50
2018-04-10T06:27:09.012Z,21.03
2018-04-10T06:29:35.191Z,21.73
2018-04-10T06:32:01.995Z,23.20
2018-04-10T06:34:28.769Z,21.93
2018-04-10T06:36:54.827Z,23.07
2018-04-10T06:39:20.864Z,22.37
2018-04-10T06:41:47.781Z,22.53
2018-04-10T06:44:14.593Z,21.33
2018-04-10T06:46:41.577Z,21.60
2018-04-10T06:49:07.628Z,22.07
2018-04-10T06:51:34.464Z,22.30
2018-04-10T06:54:00.494Z,19.30
2018-04-10T06:56:27.390Z,21.83
2018-04-10T06:58:53.471Z,23.90
2018-04-10T07:01:20.533Z,21.77
2018-04-10T07:03:46.696Z,22.40
2018-04-10T07:06:12.960Z,20.73
2018-04-10T07:08:38.987Z,21.83
2018-04-10T07:11:05.056Z,23.53
2018-04-10T07:13:31.846Z,23.07
2018-04-10T07:15:57.933Z,25.43
2018-04-10T07:18:24.769Z,25.93
2018-04-10T07:20:51.563Z,23.20
2018-04-10T07:23:17.602Z,22.70
2018-04-10T07:25:43.657Z,24.50
2018-04-10T07:28:09.669Z,23.70
2018-04-10T07:30:35.751Z,22.57
2018-04-10T07:33:02.801Z,22.90
2018-04-10T07:35:28.821Z,21.50
2018-04-10T07:37:55.593Z,23.40
2018-04-10T07:40:21.639Z,22.87
2018-04-10T07:42:47.753Z,22.97
2018-04-10T07:45:14.498Z,23.57
2018-04-10T07:47:43.292Z,23.90
2018-04-10T07:50:09.353Z,26.40
2018-04-10T07:52:35.514Z,25.20
2018-04-10T07:55:02.276Z,25.87
2018-04-10T07:57:29.088Z,24.17
2018-04-10T07:59:55.178Z,22.80
2018-04-10T08:02:21.249Z,23.67
2018-04-10T08:04:47.389Z,23.87
2018-04-10T08:07:14.132Z,22.13
2018-04-10T08:09:40.214Z,23.10
2018-04-10T08:12:07.585Z,22.50
2018-04-10T08:14:33.717Z,25.87
2018-04-10T08:17:00.437Z,24.30
2018-04-10T08:19:26.609Z,24.43
2018-04-10T08:21:53.688Z,23.80
2018-04-10T08:24:19.704Z,22.50
2018-04-10T08:26:45.833Z,23.40
2018-04-10T08:29:11.850Z,23.63
2018-04-10T08:31:37.904Z,22.30
2018-04-10T08:34:03.909Z,22.97
2018-04-10T08:36:29.954Z,22.77
2018-04-10T08:38:56.746Z,23.33
2018-04-10T08:41:24.066Z,23.60
2018-04-10T08:43:50.115Z,23.30
2018-04-10T08:46:16.969Z,20.73
2018-04-10T08:48:44.017Z,23.43
2018-04-10T08:51:11.047Z,23.00
2018-04-10T08:53:37.150Z,22.17
2018-04-10T08:56:03.237Z,23.50
2018-04-10T08:58:30.076Z,21.87
2018-04-10T09:00:57.006Z,22.40
2018-04-10T09:03:23.238Z,22.30
2018-04-10T09:05:49.364Z,22.07
2018-04-10T09:08:15.848Z,23.20
2018-04-10T09:10:41.972Z,21.80
2018-04-10T09:13:07.999Z,22.20
2018-04-10T09:15:34.120Z,21.73
2018-04-10T09:18:00.196Z,22.53
2018-04-10T09:20:26.314Z,19.67
2018-04-10T09:22:53.053Z,18.70
2018-04-10T09:25:19.846Z,18.13
2018-04-10T09:27:47.054Z,20.47
2018-04-10T09:30:13.890Z,19.77
2018-04-10T09:32:40.128Z,21.13
2018-04-10T09:35:06.286Z,21.93
2018-04-10T09:37:33.132Z,19.27
2018-04-10T09:39:59.201Z,21.53
2018-04-10T09:42:25.297Z,19.60
2018-04-10T09:44:52.028Z,18.33
2018-04-10T09:47:18.881Z,18.43
2018-04-10T09:49:44.895Z,20.20
2018-04-10T09:52:11.028Z,18.20
2018-04-10T09:54:37.847Z,17.50
2018-04-10T09:57:03.917Z,16.33
2018-04-10T09:59:30.731Z,16.90
2018-04-10T10:01:56.798Z,14.27
2018-04-10T10:04:24.445Z,12.90
2018-04-10T10:06:51.269Z,14.53
2018-04-10T10:09:17.471Z,13.77
2018-04-10T10:11:43.502Z,15.70
2018-04-10T10:14:10.377Z,14.40
2018-04-10T10:16:36.348Z,15.00
2018-04-10T10:19:03.197Z,15.17
2018-04-10T10:21:29.348Z,14.73
2018-04-10T10:23:55.373Z,13.83
2018-04-10T10:26:21.464Z,15.40
2018-04-10T10:28:47.537Z,14.67
2018-04-10T10:31:13.820Z,15.43
2018-04-10T10:33:39.879Z,15.13
2018-04-10T10:36:05.974Z,15.00
2018-04-10T10:38:32.004Z,15.10
2018-04-10T10:40:58.836Z,12.20
2018-04-10T10:43:24.900Z,11.07
2018-04-10T10:45:50.942Z,11.97
2018-04-10T10:48:16.940Z,10.83
2018-04-10T10:50:44.093Z,7.93
2018-04-10T10:53:10.263Z,6.30
2018-04-10T10:55:36.334Z,4.23
2018-04-10T10:58:02.853Z,4.20
2018-04-10T11:00:29.613Z,4.40
2018-04-10T11:02:56.608Z,3.30
2018-04-10T11:05:22.618Z,3.60
2018-04-10T11:07:48.757Z,3.97
2018-04-10T11:10:14.820Z,3.33
2018-04-10T11:12:40.920Z,3.20
2018-04-10T11:15:06.984Z,3.70
2018-04-10T11:17:33.016Z,2.87
2018-04-10T11:19:59.075Z,3.30
2018-04-10T11:22:25.058Z,3.10
2018-04-10T11:24:51.909Z,3.37
2018-04-10T11:27:18.843Z,3.00
2018-04-10T11:29:44.875Z,2.80
2018-04-10T11:32:10.941Z,3.03
2018-04-10T11:34:37.001Z,3.70
2018-04-10T11:37:03.129Z,2.80
2018-04-10T11:39:29.254Z,3.67
2018-04-10T11:41:55.281Z,2.50
2018-04-10T11:44:21.391Z,3.10
2018-04-10T11:46:47.521Z,3.30
2018-04-10T11:49:13.578Z,2.90
2018-04-10T11:51:39.565Z,3.00
2018-04-10T11:54:06.219Z,3.43
2018-04-10T11:56:32.295Z,2.80
2018-04-10T11:58:58.368Z,2.90
2018-04-10T12:01:24.694Z,3.00
2018-04-10T12:03:50.840Z,3.10
2018-04-10T12:06:18.497Z,2.80
2018-04-10T12:08:44.543Z,3.20
2018-04-10T12:11:10.666Z,3.67
2018-04-10T12:13:36.848Z,3.60
2018-04-10T12:16:02.914Z,3.10
2018-04-10T12:18:28.974Z,3.37
2018-04-10T12:20:55.833Z,3.73
2018-04-10T12:23:21.986Z,3.93
2018-04-10T12:25:48.177Z,4.20
2018-04-10T12:28:14.372Z,3.50
2018-04-10T12:30:40.451Z,2.73
2018-04-10T12:33:06.470Z,2.87
2018-04-10T12:35:33.403Z,3.07
2018-04-10T12:37:59.474Z,2.80
2018-04-10T12:40:26.308Z,3.50
2018-04-10T12:42:52.357Z,3.37
2018-04-10T12:45:18.411Z,3.50
2018-04-10T12:47:44.856Z,2.67
2018-04-10T12:50:11.182Z,3.10
2018-04-10T12:52:37.321Z,3.37
2018-04-10T12:55:03.351Z,3.20
2018-04-10T12:57:29.436Z,3.13
2018-04-10T12:59:55.481Z,3.50
2018-04-10T13:02:21.759Z,3.40
2018-04-10T13:04:47.723Z,3.10
2018-04-10T13:07:14.577Z,3.27
2018-04-10T13:09:41.475Z,3.30
2018-04-10T13:12:11.293Z,3.10
2018-04-10T13:14:37.482Z,3.43
2018-04-10T13:17:03.729Z,4.13
2018-04-10T13:19:29.907Z,3.93
2018-04-10T13:21:56.010Z,3.63
2018-04-10T13:24:22.110Z,4.00
2018-04-10T13:26:49.017Z,4.10
2018-04-10T13:29:15.138Z,3.63
2018-04-10T13:31:41.169Z,4.33
2018-04-10T13:34:07.772Z,4.20
2018-04-10T13:36:34.146Z,3.97
2018-04-10T13:39:01.186Z,3.97
2018-04-10T13:41:27.361Z,3.57
2018-04-10T13:43:53.441Z,4.50
2018-04-10T13:46:19.883Z,4.60
2018-04-10T13:48:46.097Z,3.70
2018-04-10T13:51:12.276Z,4.00
2018-04-10T13:53:38.447Z,4.00
2018-04-10T13:56:05.324Z,4.23
2018-04-10T13:58:31.418Z,4.57
2018-04-10T14:00:58.025Z,4.00
2018-04-10T14:03:24.047Z,4.30
2018-04-10T14:05:50.116Z,4.37
2018-04-10T14:08:17.113Z,3.73
2018-04-10T14:10:43.222Z,4.07
2018-04-10T14:13:09.273Z,4.40
2018-04-10T14:15:37.929Z,4.63
2018-04-10T14:18:04.035Z,5.10
2018-04-10T14:20:30.082Z,7.67
2018-04-10T14:22:56.155Z,8.30
2018-04-10T14:25:22.232Z,5.90
2018-04-10T14:27:48.369Z,4.83
2018-04-10T14:30:14.535Z,6.07
2018-04-10T14:32:40.563Z,8.37
2018-04-10T14:35:07.328Z,5.20
2018-04-10T14:37:33.363Z,5.70
2018-04-10T14:40:00.095Z,4.33
2018-04-10T14:42:26.117Z,5.00
2018-04-10T14:44:52.942Z,5.13
2018-04-10T14:47:20.669Z,6.13
2018-04-10T14:49:47.417Z,5.50
2018-04-10T14:52:14.403Z,5.87
2018-04-10T14:54:40.549Z,5.43
2018-04-10T14:57:07.399Z,4.60
2018-04-10T14:59:34.162Z,5.57
2018-04-10T15:02:00.285Z,5.20
2018-04-10T15:04:26.369Z,5.30
2018-04-10T15:06:52.547Z,5.13
2018-04-10T15:09:18.715Z,5.07
2018-04-10T15:11:44.768Z,6.20
2018-04-10T15:14:10.859Z,5.40
2018-04-10T15:16:36.918Z,4.90
2018-04-10T15:19:02.983Z,5.23
2018-04-10T15:21:29.973Z,5.13
2018-04-10T15:23:56.068Z,5.87
2018-04-10T15:26:22.934Z,5.70
2018-04-10T15:28:49.211Z,5.30
2018-04-10T15:31:15.420Z,4.70
2018-04-10T15:33:41.576Z,5.17
2018-04-10T15:36:08.485Z,5.00
2018-04-10T15:38:34.644Z,5.07
2018-04-10T15:41:00.802Z,5.40
2018-04-10T15:43:27.084Z,5.20
2018-04-10T15:45:53.977Z,5.07
2018-04-10T15:48:20.127Z,5.40
2018-04-10T15:50:49.350Z,5.23
2018-04-10T15:53:16.449Z,4.80
2018-04-10T15:55:42.625Z,5.00
2018-04-10T15:58:09.554Z,5.50
2018-04-10T16:00:35.696Z,5.23
2018-04-10T16:03:02.125Z,5.40
2018-04-10T16:05:28.179Z,5.07
2018-04-10T16:07:55.762Z,5.13
2018-04-10T16:10:22.500Z,4.67
2018-04-10T16:12:48.632Z,4.30
2018-04-10T16:15:15.360Z,4.83
2018-04-10T16:17:45.308Z,4.50
2018-04-10T16:20:11.367Z,4.40
2018-04-10T16:22:39.958Z,4.73
2018-04-10T16:25:06.177Z,4.73
2018-04-10T16:27:32.384Z,5.00
2018-04-10T16:29:58.620Z,7.43
2018-04-10T16:32:24.776Z,4.20
2018-04-10T16:34:50.906Z,4.83
2018-04-10T16:37:16.965Z,4.20
2018-04-10T16:39:43.212Z,4.20
2018-04-10T16:42:10.219Z,4.77
2018-04-10T16:44:36.500Z,4.30
2018-04-10T16:47:02.549Z,4.20
2018-04-10T16:49:28.572Z,5.13
2018-04-10T16:51:54.666Z,4.00
2018-04-10T16:54:20.728Z,3.83
2018-04-10T16:56:46.782Z,4.23
2018-04-10T16:59:13.938Z,3.73
2018-04-10T17:01:40.193Z,3.93
2018-04-10T17:04:06.317Z,3.90
2018-04-10T17:06:32.494Z,4.00
2018-04-10T17:08:59.339Z,4.20
2018-04-10T17:11:25.517Z,3.90
2018-04-10T17:13:52.341Z,3.70
2018-04-10T17:16:19.198Z,4.30
2018-04-10T17:18:45.312Z,4.40
2018-04-10T17:21:12.134Z,4.07
2018-04-10T17:23:38.266Z,3.83
2018-04-10T17:26:05.897Z,4.10
2018-04-10T17:28:32.856Z,4.50
2018-04-10T17:30:59.127Z,3.80
2018-04-10T17:33:32.251Z,3.30
2018-04-10T17:35:58.412Z,3.60
2018-04-10T17:38:24.557Z,3.83
2018-04-10T17:40:50.558Z,4.10
2018-04-10T17:43:16.734Z,4.00
2018-04-10T17:45:44.565Z,3.80
2018-04-10T17:48:12.093Z,4.10
2018-04-10T17:50:38.265Z,3.57
2018-04-10T17:53:06.103Z,4.00
2018-04-10T17:55:33.097Z,4.57
2018-04-10T17:57:59.277Z,4.90
2018-04-10T18:00:25.430Z,4.50
2018-04-10T18:02:51.514Z,3.90
2018-04-10T18:05:17.634Z,3.97
2018-04-10T18:07:44.898Z,5.43
2018-04-10T18:10:11.012Z,4.63
2018-04-10T18:12:37.243Z,3.67
2018-04-10T18:15:04.184Z,4.70
2018-04-10T18:17:30.376Z,3.80
2018-04-10T18:19:56.596Z,4.20
2018-04-10T18:22:22.725Z,3.77
2018-04-10T18:24:48.790Z,3.30
2018-04-10T18:27:15.233Z,2.97
2018-04-10T18:29:41.258Z,2.97
2018-04-10T18:32:08.056Z,3.50
2018-04-10T18:34:34.311Z,3.00
2018-04-10T18:37:01.255Z,3.00
2018-04-10T18:39:27.445Z,3.23
2018-04-10T18:41:53.514Z,3.17
2018-04-10T18:44:19.849Z,2.80
2018-04-10T18:46:46.158Z,2.83
2018-04-10T18:49:12.229Z,3.10
2018-04-10T18:51:39.141Z,3.00
2018-04-10T18:54:05.299Z,2.60
2018-04-10T18:56:31.349Z,3.30
2018-04-10T18:58:58.055Z,3.13
2018-04-10T19:01:24.191Z,2.70
2018-04-10T19:03:51.511Z,3.60
2018-04-10T19:06:17.648Z,3.77
2018-04-10T19:08:44.478Z,2.97
2018-04-10T19:11:10.591Z,3.33
2018-04-10T19:13:36.665Z,2.63
2018-04-10T19:16:02.721Z,2.93
2018-04-10T19:18:28.836Z,3.13
2018-04-10T19:20:55.839Z,4.00
2018-04-10T19:23:21.997Z,3.33
2018-04-10T19:25:48.076Z,2.90
2018-04-10T19:28:14.085Z,2.90
2018-04-10T19:30:40.169Z,2.77
2018-04-10T19:33:06.291Z,3.50
2018-04-10T19:35:32.512Z,2.93
2018-04-10T19:37:58.663Z,3.00
2018-04-10T19:40:24.821Z,3.07
2018-04-10T19:42:57.855Z,2.60
2018-04-10T19:45:23.949Z,3.30
2018-04-10T19:47:50.077Z,2.53
2018-04-10T19:50:16.301Z,2.40
2018-04-10T19:52:42.389Z,2.30
2018-04-10T19:55:08.402Z,2.30
2018-04-10T19:57:35.092Z,2.10
2018-04-10T20:00:01.098Z,2.50
2018-04-10T20:02:27.376Z,2.40
2018-04-10T20:04:53.780Z,2.27
2018-04-10T20:07:20.666Z,2.53
2018-04-10T20:09:46.796Z,2.23
2018-04-10T20:12:13.909Z,2.33
2018-04-10T20:14:40.435Z,2.73
2018-04-10T20:17:06.648Z,2.63
2018-04-10T20:19:33.531Z,2.37
2018-04-10T20:22:00.317Z,2.50
2018-04-10T20:24:27.440Z,2.20
2018-04-10T20:26:54.239Z,2.70
2018-04-10T20:29:20.989Z,2.47
2018-04-10T20:31:47.982Z,2.03
2018-04-10T20:34:14.160Z,2.50
2018-04-10T20:36:43.410Z,2.30
2018-04-10T20:39:10.300Z,2.47
2018-04-10T20:41:36.448Z,2.40
2018-04-10T20:44:03.214Z,2.40
2018-04-10T20:46:29.291Z,2.60
2018-04-10T20:48:55.883Z,2.10
2018-04-10T20:51:21.907Z,2.47
2018-04-10T20:53:47.958Z,2.13
2018-04-10T20:56:14.077Z,2.43
2018-04-10T20:58:40.077Z,2.77
2018-04-10T21:01:06.208Z,2.90
2018-04-10T21:03:32.349Z,2.90
2018-04-10T21:05:58.488Z,2.93
2018-04-10T21:08:24.614Z,2.80
2018-04-10T21:10:50.696Z,2.83
2018-04-10T21:13:20.430Z,2.80
2018-04-10T21:15:48.893Z,3.13
2018-04-10T21:18:15.329Z,2.20
2018-04-10T21:20:41.455Z,2.33
2018-04-10T21:23:07.601Z,2.20
2018-04-10T21:25:33.693Z,2.53
2018-04-10T21:28:00.167Z,2.37
2018-04-10T21:30:26.525Z,2.40
2018-04-10T21:32:53.664Z,2.40
2018-04-10T21:35:21.401Z,2.60
2018-04-10T21:37:49.663Z,4.00
2018-04-10T21:40:16.224Z,2.77
2018-04-10T21:42:50.049Z,3.60
2018-04-10T21:45:17.050Z,3.07
2018-04-10T21:47:43.862Z,3.03
2018-04-10T21:50:10.141Z,3.20
2018-04-10T21:52:36.979Z,3.50
2018-04-10T21:55:03.322Z,3.10
2018-04-10T21:57:30.618Z,3.20
2018-04-10T21:59:56.692Z,3.20
2018-04-10T22:02:22.946Z,3.17
2018-04-10T22:04:50.454Z,3.23
2018-04-10T22:07:16.878Z,3.40
2018-04-10T22:09:43.217Z,4.20
2018-04-10T22:12:09.445Z,4.50
2018-04-10T22:14:35.593Z,4.00
2018-04-10T22:17:01.753Z,4.33
2018-04-10T22:19:28.215Z,4.70
2018-04-10T22:21:55.216Z,4.43
2018-04-10T22:24:21.337Z,5.43
2018-04-10T22:26:47.429Z,4.57
2018-04-10T22:29:13.557Z,5.30
2018-04-10T22:31:40.777Z,5.63
2018-04-10T22:34:06.812Z,4.20
2018-04-10T22:36:33.026Z,4.33
2018-04-10T22:38:59.150Z,3.50
2018-04-10T22:41:25.398Z,3.63
2018-04-10T22:47:12.876Z,4.13
2018-04-10T22:49:38.976Z,3.87
2018-04-10T22:52:05.204Z,5.20
2018-04-10T22:54:37.268Z,4.10
2018-04-10T22:57:03.339Z,3.90
2018-04-10T22:59:29.411Z,3.97
2018-04-10T23:01:55.424Z,4.23
2018-04-10T23:04:21.544Z,4.40
2018-04-10T23:06:47.660Z,4.57
2018-04-10T23:09:13.757Z,4.20
2018-04-10T23:11:39.841Z,4.73
2018-04-10T23:14:06.404Z,4.80
2018-04-10T23:16:32.477Z,4.90
2018-04-10T23:18:59.202Z,4.83
2018-04-10T23:21:25.378Z,5.07
2018-04-10T23:23:52.263Z,7.87
2018-04-10T23:26:18.353Z,9.73
2018-04-10T23:28:45.863Z,7.60
2018-04-10T23:31:11.934Z,5.20
2018-04-10T23:33:37.923Z,6.00
2018-04-10T23:36:03.960Z,4.90
2018-04-10T23:38:30.630Z,7.40
2018-04-10T23:40:56.767Z,8.37
2018-04-10T23:43:23.762Z,6.40
2018-04-10T23:45:49.873Z,5.53
2018-04-10T23:48:15.918Z,4.60
2018-04-10T23:50:42.700Z,5.90
2018-04-10T23:53:08.772Z,6.27
2018-04-10T23:55:35.752Z,5.10
2018-04-10T23:58:01.838Z,6.67
